Relevés horaires Koksijde (Belgique)


Relevés horaires à Koksijde - Vendredi 13 Mai 2022
Heure UTC1 Température [°C] Vent [km/h] Hum. [%] Pres.4 [hPa] Visi. [Km] Nébu. [octa] Préc.5 [mm] Cond.
2m. Res. Ros. Dir.2 Vit. Moy. Raf.3
23:00 10.3 9.9 8.3 SO 5.6 -- 11.1 87 1021.3(-0.1/3h) 17 -- -- --
22:00 10.6 10.3 7.6 SO 5.6 -- 11.1 82 1021.5(0.2/3h) 19 -- -- --
21:00 11.3 10.7 7.1 SO 7.4 -- 18.5 75 1021.5(0.5/3h) 20 -- -- --
20:00 12.1 11.6 6.1 SO 7.4 -- 14.8 67 1021.5(0.3/3h) 20 -- -- --
19:00 14.0 13.5 5.4 OSO 9.3 -- 18.5 56 1021.2(0.2/3h) 20 -- -- --
18:00 15.7 15.3 5.2 OSO 11.1 -- 24.1 50 1020.8(0.1/3h) 20 -- -- --
17:00 16.4 16 5.1 OSO 13.0 -- 20.4 47 1021.1(0.1/3h) 20 -- -- --
16:00 17.4 17.4 6.1 SO 11.1 -- 20.4 47 1020.8(-0.5/3h) 20 -- -- --
15:00 17.5 17.5 7.1 SO 11.1 -- 24.1 50 1020.7(-0.6/3h) 20 5/8 -- --
14:00 18.4 18.4 7.4 SO 11.1 -- 24.1 49 1021(-0.3/3h) 20 5/8 -- --
13:00 17.1 17 7.9 OSO 11.1 -- 20.4 55 1021.3(0.0/3h) 20 6/8 -- --
12:00 17.1 16.8 8.6 OSO 13.0 -- 20.4 57 1021.5(0.2/3h) 20 6/8 -- --
11:00 16.0 15.9 8.8 O 9.3 -- 18.5 62 1021.2(0.0/3h) 20 6/8 -- --
10:00 15.2 14.5 6.6 O 13.0 -- 20.4 56 1021.3(0.6/3h) 20 6/8 -- --
09:00 15.2 14.5 7.4 O 13.0 -- 20.4 60 1021.2(0.8/3h) 20 6/8 -- --
08:00 13.8 12.8 7.5 O 13.0 -- 20.4 66 1021.2(1.5/3h) 20 6/8 -- --
07:00 12.6 12.2 9.6 SO 7.4 -- 14.8 82 1020.7(1.3/3h) 15 6/8 -- --
06:00 10.5 10.2 9.2 SO 5.6 -- 11.1 92 1020.3(1.0/3h) 15 6/8 -- --
05:00 9.6 9.1 8.8 SO 5.6 -- 9.3 95 1019.7(0.3/3h) 15 6/8 -- --
04:00 9.8 9.4 8.8 SO 5.6 -- 11.1 93 1019.3(-0.1/3h) 10 -- -- --
03:00 10.6 9.8 9.1 SO 7.4 -- 11.1 90 1019.3(-0.2/3h) 14 -- -- --
02:00 10.8 10.1 9.0 SO 7.4 -- 11.1 89 1019.2(-0.2/3h) 14 -- -- --
01:00 10.3 9.9 8.7 SO 5.6 -- 11.1 90 1019.6(-0.1/3h) 13 -- -- --
00:00 10.2 9.8 8.7 SO 5.6 -- 20.4 90 1019.6(-0.2/3h) 12 -- -- --

1 Coordinated Universal Time. Actuellement il est 12:00 locale et 10:00 UTC.

2 Le vent souffle depuis la direction indiquée vers la direction oposée.

3 Les rafales max. sont disponible 40 min après l'heure du relevé.

4 Pour les stations d'altitude (plus de 600m) le géopotentiel du niveau le plus proche de la pression obligatoire est indiqué.

5 Les stations disposant d'un diffuseur peuvent indiquer "trace". Cela signifie que des précipitations ont touchés le sol mais que la quantité est inférieure à 0.1 mm.

Récapitulatif de la journée
Température [°C] Vent [km/h] Ensoleillement4 [h] Precipitations totale5 [mm] Pression [Hpa]
Min1 Max.2 Moy.3 Max. Min Max.
9.3 18.5 0 24.1 0 h 0 min 0 1019.2 1021.5

1 Température minimale relevée entre 18:00 UTC la veille et 18:00 UTC le jour donné.

2 Température maximale relevée entre 06:00 UTC le jour donné et 06:00 UTC le lendemain.

3 Vent moyen de la journée basé sur les relevés horaires.

4 Ensoleillement en heures relevé entre 06:00 UTC la veille et 06:00 UTC le jour donné.

5 Précipitations totales tombées entre 06:00 UTC la jour donné et 06:00 UTC le lendemain.

Graphiques horaires